Time;durP1;ratioP1;P1;durP2;ratioP2;P2;SDS_P1;SDS_P2;PMS_P1;PMS_P2;Temp;Humidity;BMP_temperature;BMP_pressure;BME280_temperature;BME280_humidity;BME280_pressure;Samples;Min_cycle;Max_cycle;Signal;HPM_P1;HPM_P2
2023/01/29 00:01:33;;;;;;;31.50;19.40;;;;;;;-3.76;70.69;100400.30;105919;1254;59630;-80
2023/01/29 00:03:59;;;;;;;25.60;15.20;;;;;;;-3.75;70.83;100400.30;105862;1252;66027;-81
2023/01/29 00:06:26;;;;;;;22.80;13.90;;;;;;;-3.74;70.83;100403.88;105858;1257;59791;-82
2023/01/29 00:08:54;;;;;;;21.30;12.90;;;;;;;-3.73;70.86;100404.55;105995;1254;65571;-79
2023/01/29 00:11:22;;;;;;;22.10;13.60;;;;;;;-3.73;70.90;100405.59;105786;1254;59800;-82
2023/01/29 00:13:49;;;;;;;22.60;13.10;;;;;;;-3.73;71.07;100398.88;105820;1254;59609;-83
2023/01/29 00:16:17;;;;;;;21.50;13.00;;;;;;;-3.73;70.92;100397.16;108164;1253;65913;-81
2023/01/29 00:18:44;;;;;;;20.20;12.50;;;;;;;-3.73;70.96;100398.86;108078;1254;59973;-80
2023/01/29 00:21:14;;;;;;;21.50;13.10;;;;;;;-3.72;71.10;100401.07;106063;1254;64242;-82
2023/01/29 00:23:41;;;;;;;22.70;13.10;;;;;;;-3.70;71.15;100397.95;105977;1254;60482;-82
2023/01/29 00:26:08;;;;;;;23.60;13.50;;;;;;;-3.70;71.23;100392.44;105912;1253;62040;-85
2023/01/29 00:28:37;;;;;;;21.70;13.70;;;;;;;-3.69;71.21;100392.06;105933;1256;66545;-83
2023/01/29 00:31:14;;;;;;;23.50;14.00;;;;;;;-3.69;71.30;100390.17;105753;1254;60568;-83
2023/01/29 00:33:42;;;;;;;23.80;13.80;;;;;;;-3.68;71.27;100392.56;105543;1262;65268;-81
2023/01/29 00:36:10;;;;;;;26.40;14.40;;;;;;;-3.69;71.40;100391.89;105938;1257;60348;-81
2023/01/29 00:38:38;;;;;;;22.20;13.50;;;;;;;-3.71;71.37;100392.80;105783;1254;60354;-81
2023/01/29 00:46:41;;;;;;;24.60;13.80;;;;;;;-3.66;71.53;100393.05;105758;1254;64566;-82
2023/01/29 00:49:08;;;;;;;24.10;15.00;;;;;;;-3.65;71.54;100390.45;105788;1254;60520;-82
2023/01/29 00:51:35;;;;;;;25.10;14.50;;;;;;;-3.66;71.47;100397.00;105928;1254;60444;-82
2023/01/29 00:54:05;;;;;;;40.10;20.90;;;;;;;-3.68;71.53;100402.90;105750;1254;65561;-83
2023/01/29 00:56:34;;;;;;;29.60;16.20;;;;;;;-3.67;71.53;100403.73;105770;1254;60797;-83
2023/01/29 00:59:01;;;;;;;25.90;14.80;;;;;;;-3.66;71.61;100402.52;105641;1254;65210;-82
2023/01/29 01:04:14;;;;;;;36.10;17.60;;;;;;;-3.64;71.66;100390.95;105725;1254;60428;-82
2023/01/29 01:06:41;;;;;;;26.30;14.50;;;;;;;-3.61;71.74;100391.73;105706;1254;65516;-82
2023/01/29 01:11:55;;;;;;;25.40;14.60;;;;;;;-3.60;71.69;100389.63;106163;1253;65785;-81
2023/01/29 01:14:21;;;;;;;22.50;14.10;;;;;;;-3.60;71.69;100390.67;105635;1255;60544;-82
2023/01/29 01:16:49;;;;;;;22.70;13.00;;;;;;;-3.61;71.70;100396.02;105685;1253;60482;-82
2023/01/29 01:19:16;;;;;;;21.40;13.80;;;;;;;-3.61;71.68;100400.85;105713;1253;66727;-81
2023/01/29 01:21:45;;;;;;;19.60;12.40;;;;;;;-3.61;71.78;100403.61;105730;1260;60312;-82
2023/01/29 01:24:12;;;;;;;23.60;14.80;;;;;;;-3.62;71.74;100403.27;105780;1253;64342;-82
2023/01/29 01:26:41;;;;;;;24.60;15.00;;;;;;;-3.64;71.54;100398.34;105937;1254;61164;-78
2023/01/29 01:29:08;;;;;;;23.10;14.90;;;;;;;-3.67;71.62;100401.15;105720;1254;60470;-81
2023/01/29 01:31:35;;;;;;;22.00;13.90;;;;;;;-3.69;71.65;100398.25;105827;1256;66513;-82
2023/01/29 01:34:02;;;;;;;24.80;15.00;;;;;;;-3.69;71.69;100398.60;105689;1257;60546;-83
2023/01/29 01:36:49;;;;;;;23.90;14.60;;;;;;;-3.70;71.76;100395.71;105722;1253;66799;-83
2023/01/29 01:39:16;;;;;;;29.50;15.60;;;;;;;-3.69;71.74;100393.96;105775;1254;60453;-84
2023/01/29 01:41:43;;;;;;;24.00;14.10;;;;;;;-3.67;71.79;100395.98;105826;1254;60960;-83
2023/01/29 01:44:47;;;;;;;23.40;14.30;;;;;;;-3.65;71.77;100397.50;105673;1259;66948;-84
2023/01/29 01:47:14;;;;;;;23.60;14.70;;;;;;;-3.65;71.77;100394.40;105755;1254;60534;-83
2023/01/29 01:49:42;;;;;;;24.90;15.50;;;;;;;-3.65;71.78;100393.89;105840;1254;65092;-81
2023/01/29 01:52:09;;;;;;;22.10;14.00;;;;;;;-3.66;71.83;100399.41;105596;1261;60479;-84
2023/01/29 01:54:36;;;;;;;23.50;14.70;;;;;;;-3.65;71.80;100400.95;105725;1254;60454;-84
2023/01/29 01:57:08;;;;;;;23.60;15.50;;;;;;;-3.64;71.90;100404.88;105696;1254;66868;-81
2023/01/29 01:59:36;;;;;;;25.90;15.00;;;;;;;-3.62;71.79;100407.58;106036;1256;60545;-84
2023/01/29 02:10:19;;;;;;;23.00;13.70;;;;;;;-3.56;71.87;100409.52;105793;1254;66558;-81
2023/01/29 02:12:47;;;;;;;25.60;14.70;;;;;;;-3.53;71.87;100407.21;105685;1254;60453;-84
2023/01/29 02:15:15;;;;;;;21.40;14.00;;;;;;;-3.51;71.81;100407.17;105688;1254;65554;-83
2023/01/29 02:17:47;;;;;;;21.10;13.60;;;;;;;-3.50;71.87;100406.63;105605;1255;60533;-82
2023/01/29 02:20:18;;;;;;;19.90;12.00;;;;;;;-3.48;71.86;100407.95;105699;1254;60957;-82
2023/01/29 02:23:22;;;;;;;19.10;12.70;;;;;;;-3.47;71.84;100405.37;105646;1254;66822;-82
2023/01/29 02:25:56;;;;;;;20.40;13.20;;;;;;;-3.46;71.71;100407.08;105665;1254;60535;-82
2023/01/29 02:28:32;;;;;;;;;;;;;;;-3.45;71.68;100402.58;105541;1254;65626;-82
2023/01/29 02:31:17;;;;;;;19.20;11.60;;;;;;;-3.44;71.68;100400.50;105758;1252;60365;-83
2023/01/29 02:34:13;;;;;;;20.70;12.40;;;;;;;-3.43;71.70;100396.88;105731;1253;60459;-83
2023/01/29 02:36:56;;;;;;;16.90;11.10;;;;;;;-3.43;71.55;100399.27;105513;1259;66454;-82
2023/01/29 02:39:46;;;;;;;20.50;12.50;;;;;;;-3.43;71.48;100398.40;105752;1254;62123;-82
2023/01/29 02:42:34;;;;;;;17.20;11.50;;;;;;;-3.42;71.50;100400.96;105657;1253;65374;-83
2023/01/29 02:45:40;;;;;;;16.40;11.50;;;;;;;-3.40;71.50;100403.16;105656;1256;60469;-82
2023/01/29 02:48:07;;;;;;;18.50;12.80;;;;;;;-3.38;71.40;100408.62;105662;1254;60509;-81
2023/01/29 02:50:56;;;;;;;17.40;11.60;;;;;;;-3.36;71.47;100404.45;105397;1260;66641;-81
2023/01/29 02:53:28;;;;;;;18.90;12.60;;;;;;;-3.34;71.36;100400.63;105613;1257;60613;-82
2023/01/29 02:55:59;;;;;;;19.20;12.10;;;;;;;-3.34;71.29;100397.17;105638;1260;65264;-82
2023/01/29 02:58:49;;;;;;;20.00;12.30;;;;;;;-3.32;71.31;100390.92;105659;1257;60446;-81
2023/01/29 03:01:29;;;;;;;18.40;11.90;;;;;;;-3.28;71.21;100388.94;105560;1260;60552;-81
2023/01/29 03:03:59;;;;;;;17.00;11.60;;;;;;;-3.26;71.18;100387.69;106037;1257;66744;-82
2023/01/29 03:06:30;;;;;;;16.90;11.60;;;;;;;-3.24;71.08;100387.65;105792;1254;60517;-81
2023/01/29 03:09:03;;;;;;;17.60;11.40;;;;;;;-3.23;71.09;100385.55;105459;1255;65553;-81
2023/01/29 03:11:41;;;;;;;17.20;11.50;;;;;;;-3.20;71.04;100382.90;105549;1259;60402;-82
2023/01/29 03:14:15;;;;;;;16.40;10.60;;;;;;;-3.20;70.94;100383.05;105384;1255;60435;-81
2023/01/29 03:16:50;;;;;;;18.60;11.70;;;;;;;-3.19;71.02;100378.21;105591;1258;67497;-83
2023/01/29 03:19:33;;;;;;;18.60;11.70;;;;;;;-3.18;70.86;100374.25;105598;1254;60540;-82
2023/01/29 03:22:03;;;;;;;;;;;;;;;-3.17;70.76;100365.28;105569;1254;65393;-82
2023/01/29 03:33:55;;;;;;;18.60;11.20;;;;;;;-3.18;70.62;100369.95;105567;1254;60517;-81
2023/01/29 03:36:25;;;;;;;15.90;11.20;;;;;;;-3.19;70.59;100373.05;105557;1257;64553;-81
2023/01/29 03:38:52;;;;;;;16.60;11.30;;;;;;;-3.18;70.58;100372.88;105822;1254;60478;-81
2023/01/29 03:41:25;;;;;;;16.20;10.70;;;;;;;-3.16;70.53;100374.20;105619;1254;60466;-82
2023/01/29 03:44:07;;;;;;;16.00;10.80;;;;;;;-3.13;70.56;100379.14;105594;1257;66671;-81
2023/01/29 03:47:15;;;;;;;17.50;11.40;;;;;;;-3.12;70.56;100381.67;105721;1254;60443;-81
2023/01/29 03:50:01;;;;;;;15.80;11.20;;;;;;;-3.09;70.42;100385.58;105355;1254;65354;-82
2023/01/29 03:52:46;;;;;;;17.20;11.20;;;;;;;-3.07;70.41;100387.61;105495;1257;60572;-81
2023/01/29 03:55:19;;;;;;;20.20;12.80;;;;;;;-3.06;70.28;100395.16;105697;1254;60427;-82
2023/01/29 03:58:24;;;;;;;16.80;11.30;;;;;;;-3.05;70.36;100397.90;105806;1254;66804;-82
2023/01/29 04:01:03;;;;;;;16.10;11.00;;;;;;;-3.04;70.30;100400.27;105226;1263;60616;-82
2023/01/29 04:03:34;;;;;;;16.30;10.20;;;;;;;-3.03;70.29;100403.16;105685;1260;65384;-81
2023/01/29 04:06:09;;;;;;;16.50;10.40;;;;;;;-3.02;70.27;100400.39;105893;1254;60876;-82
2023/01/29 04:08:48;;;;;;;15.80;10.20;;;;;;;-3.01;70.21;100400.88;107141;1254;60463;-79
2023/01/29 04:11:17;;;;;;;15.20;10.50;;;;;;;-3.00;70.16;100399.98;107192;1254;66501;-79
2023/01/29 04:13:44;;;;;;;16.10;10.30;;;;;;;-2.98;70.12;100397.89;106074;1254;60473;-81
2023/01/29 04:16:19;;;;;;;15.30;10.60;;;;;;;-2.96;70.04;100396.64;105570;1254;65296;-82
2023/01/29 04:19:00;;;;;;;14.10;10.50;;;;;;;-2.94;70.09;100394.50;105646;1257;60523;-81
2023/01/29 04:21:33;;;;;;;15.00;10.30;;;;;;;-2.92;70.08;100394.96;105961;1253;60510;-82
2023/01/29 04:24:01;;;;;;;15.30;10.10;;;;;;;-2.91;69.97;100390.98;105747;1259;66401;-81
2023/01/29 04:26:37;;;;;;;14.20;9.40;;;;;;;-2.90;69.93;100391.30;105615;1254;60457;-82
2023/01/29 04:29:27;;;;;;;14.60;9.90;;;;;;;-2.90;69.96;100393.20;105611;1255;65412;-81
2023/01/29 04:32:31;;;;;;;14.60;9.70;;;;;;;-2.88;69.90;100396.12;105542;1254;60371;-80
2023/01/29 04:35:04;;;;;;;16.20;10.50;;;;;;;-2.87;69.80;100399.19;105512;1254;60527;-82
2023/01/29 04:37:36;;;;;;;15.60;10.00;;;;;;;-2.87;69.80;100397.47;105588;1254;66667;-82
2023/01/29 04:40:10;;;;;;;15.50;10.30;;;;;;;-2.87;69.84;100396.09;105636;1254;60436;-81
2023/01/29 04:42:47;;;;;;;14.40;10.00;;;;;;;-2.90;69.76;100397.68;105607;1254;65507;-82
2023/01/29 04:45:39;;;;;;;16.90;11.00;;;;;;;-2.91;69.66;100400.11;105673;1253;60404;-81
2023/01/29 04:48:18;;;;;;;15.10;10.20;;;;;;;-2.91;69.65;100405.80;105714;1254;60399;-81
2023/01/29 04:51:09;;;;;;;15.10;9.70;;;;;;;-2.89;69.76;100403.88;105537;1260;66815;-81
2023/01/29 04:54:00;;;;;;;15.40;10.00;;;;;;;-2.86;69.69;100405.38;105665;1254;60442;-81
2023/01/29 04:56:37;;;;;;;14.80;10.80;;;;;;;-2.84;69.68;100403.08;105774;1254;65575;-78
2023/01/29 04:59:06;;;;;;;15.60;10.20;;;;;;;-2.82;69.72;100409.23;105574;1254;60390;-82
2023/01/29 05:01:34;;;;;;;15.10;10.00;;;;;;;-2.82;69.77;100412.14;105293;1262;60532;-82
2023/01/29 05:04:13;;;;;;;15.40;10.20;;;;;;;-2.80;69.82;100412.45;105685;1257;66559;-81
2023/01/29 05:06:40;;;;;;;15.60;10.70;;;;;;;-2.79;69.76;100411.05;105636;1257;60577;-80
2023/01/29 05:09:07;;;;;;;16.40;10.10;;;;;;;-2.78;69.76;100410.34;105713;1254;65560;-81
2023/01/29 05:11:34;;;;;;;15.40;9.40;;;;;;;-2.77;69.81;100410.66;105643;1253;60335;-83
2023/01/29 05:14:01;;;;;;;13.90;9.90;;;;;;;-2.76;69.73;100409.94;105702;1254;60478;-81
2023/01/29 05:16:41;;;;;;;17.40;10.00;;;;;;;-2.76;69.68;100409.25;105653;1254;66692;-78
2023/01/29 05:19:10;;;;;;;15.20;9.90;;;;;;;-2.74;69.68;100415.75;105348;1260;60455;-80
2023/01/29 05:21:37;;;;;;;16.80;10.50;;;;;;;-2.74;69.65;100415.73;105562;1263;64404;-81
2023/01/29 05:24:25;;;;;;;14.40;9.90;;;;;;;-2.75;69.72;100418.35;105657;1257;60456;-82
2023/01/29 05:29:44;;;;;;;16.20;10.30;;;;;;;-2.73;69.75;100417.27;105795;1254;66639;-83
2023/01/29 05:32:11;;;;;;;17.70;11.30;;;;;;;-2.73;69.66;100418.13;105924;1253;60406;-81
2023/01/29 05:34:42;;;;;;;17.20;11.40;;;;;;;-2.72;69.68;100423.09;105815;1254;65433;-81
2023/01/29 05:37:09;;;;;;;16.80;11.20;;;;;;;-2.72;69.72;100427.23;105687;1254;60501;-81
2023/01/29 05:39:36;;;;;;;17.30;11.30;;;;;;;-2.71;69.79;100425.14;105449;1254;60395;-81
2023/01/29 05:42:03;;;;;;;17.40;11.20;;;;;;;-2.71;69.77;100427.02;105723;1252;65347;-79
2023/01/29 05:44:30;;;;;;;15.10;10.10;;;;;;;-2.70;69.92;100427.54;105842;1254;60506;-80
2023/01/29 05:47:01;;;;;;;16.80;10.60;;;;;;;-2.69;69.96;100425.30;105605;1255;65547;-80
2023/01/29 05:49:28;;;;;;;16.50;10.70;;;;;;;-2.70;70.01;100421.52;105773;1253;60456;-84
2023/01/29 05:51:55;;;;;;;16.30;10.80;;;;;;;-2.69;70.05;100423.38;105600;1252;60530;-81
2023/01/29 05:54:22;;;;;;;15.90;10.80;;;;;;;-2.68;70.02;100426.30;105590;1259;66690;-79
2023/01/29 05:56:48;;;;;;;15.60;10.70;;;;;;;-2.67;70.13;100429.37;105948;1254;60539;-82
2023/01/29 05:59:15;;;;;;;15.00;10.40;;;;;;;-2.66;70.24;100430.04;105698;1254;65860;-81
2023/01/29 08:15:44;;;;;;;11.60;8.60;;;;;;;-2.22;73.47;100435.37;103513;1284;604488;-76
2023/01/29 08:18:13;;;;;;;11.90;8.50;;;;;;;-1.59;71.70;100440.30;104754;1273;167683;-79
2023/01/29 08:20:42;;;;;;;10.00;7.90;;;;;;;-1.58;71.36;100442.52;105021;1270;59531;-76
2023/01/29 08:23:14;;;;;;;11.50;8.60;;;;;;;-1.56;71.09;100444.02;104796;1266;65346;-78
2023/01/29 08:25:42;;;;;;;11.90;8.30;;;;;;;-1.56;70.77;100444.35;105080;1264;59333;-77
2023/01/29 08:28:11;;;;;;;11.20;7.60;;;;;;;-1.56;70.48;100446.24;104978;1267;65552;-80
2023/01/29 08:30:39;;;;;;;11.80;8.00;;;;;;;-1.56;70.16;100447.63;104939;1269;59435;-79
2023/01/29 08:33:11;;;;;;;10.00;7.40;;;;;;;-1.57;69.92;100453.00;104968;1266;59285;-75
2023/01/29 08:35:40;;;;;;;10.80;7.80;;;;;;;-1.58;69.76;100449.23;105003;1269;65148;-78
2023/01/29 08:38:09;;;;;;;11.10;8.10;;;;;;;-1.58;69.75;100448.38;105105;1269;59836;-79
2023/01/29 08:40:37;;;;;;;11.60;8.00;;;;;;;-1.56;69.60;100443.16;105240;1269;64654;-82
2023/01/29 08:43:06;;;;;;;10.30;7.50;;;;;;;-1.55;69.52;100444.15;104929;1276;59670;-79
2023/01/29 08:45:37;;;;;;;11.20;7.40;;;;;;;-1.55;69.37;100443.29;105151;1274;59720;-80
2023/01/29 08:48:06;;;;;;;11.50;7.90;;;;;;;-1.55;69.29;100442.59;105190;1264;64627;-77
2023/01/29 08:50:34;;;;;;;10.10;7.40;;;;;;;-1.55;69.10;100441.40;105139;1271;59548;-77
2023/01/29 08:53:08;;;;;;;9.50;7.30;;;;;;;-1.57;68.91;100439.18;105683;1258;64546;-79
2023/01/29 08:55:37;;;;;;;9.60;7.40;;;;;;;-1.57;68.71;100438.01;105633;1260;59688;-77
2023/01/29 08:58:06;;;;;;;9.30;7.00;;;;;;;-1.59;68.51;100436.32;105420;1258;59662;-73
2023/01/29 09:00:34;;;;;;;8.30;6.40;;;;;;;-1.59;68.31;100434.45;105511;1257;65661;-75
2023/01/29 09:03:06;;;;;;;8.70;6.20;;;;;;;-1.58;68.09;100434.93;105242;1262;59918;-74
2023/01/29 09:05:36;;;;;;;8.00;6.30;;;;;;;-1.58;67.85;100435.08;108947;1258;66237;-73
2023/01/29 09:08:04;;;;;;;8.80;6.30;;;;;;;-1.56;67.63;100438.48;108999;1260;57450;-73
2023/01/29 09:10:32;;;;;;;10.10;7.20;;;;;;;-1.55;67.55;100437.05;105939;1261;59611;-72
2023/01/29 09:13:00;;;;;;;29.90;20.90;;;;;;;-1.51;67.39;100432.65;105200;1258;65415;-72
2023/01/29 09:15:29;;;;;;;15.40;11.00;;;;;;;-1.47;67.38;100431.14;105396;1261;59917;-72
2023/01/29 09:18:02;;;;;;;12.20;8.80;;;;;;;-1.41;67.24;100431.66;105281;1261;64715;-73
2023/01/29 09:20:32;;;;;;;27.60;19.60;;;;;;;-1.34;67.08;100431.11;105394;1261;59781;-74
2023/01/29 09:23:05;;;;;;;16.40;10.70;;;;;;;-1.27;67.02;100426.92;105402;1260;59749;-75
2023/01/29 09:25:34;;;;;;;13.40;10.50;;;;;;;-1.17;66.96;100423.52;105019;1269;65967;-69
2023/01/29 09:28:02;;;;;;;13.40;9.20;;;;;;;-1.03;66.89;100421.54;105167;1263;59636;-72
2023/01/29 09:30:33;;;;;;;10.40;7.50;;;;;;;-0.89;66.69;100417.27;105190;1264;65563;-73
2023/01/29 09:33:03;;;;;;;12.80;9.10;;;;;;;-0.79;66.36;100413.34;105219;1258;59946;-74
2023/01/29 09:35:32;;;;;;;9.30;6.90;;;;;;;-0.73;66.10;100413.81;105397;1260;59868;-77
2023/01/29 09:38:00;;;;;;;7.50;5.60;;;;;;;-0.69;65.72;100411.42;105277;1263;65908;-78
2023/01/29 09:40:49;;;;;;;7.60;5.80;;;;;;;-0.66;65.36;100406.88;105172;1263;59814;-73
2023/01/29 09:43:24;;;;;;;8.30;6.00;;;;;;;-0.63;65.05;100402.45;105707;1261;65539;-73
2023/01/29 09:46:00;;;;;;;8.10;5.70;;;;;;;-0.57;64.80;100401.04;105222;1260;60570;-71
2023/01/29 09:48:31;;;;;;;8.80;6.00;;;;;;;-0.49;64.64;100401.98;105502;1263;59640;-69
2023/01/29 09:51:00;;;;;;;8.60;5.90;;;;;;;-0.42;64.33;100403.29;105410;1261;65252;-69
2023/01/29 09:53:33;;;;;;;7.90;6.00;;;;;;;-0.36;64.22;100398.05;105189;1264;60022;-70
2023/01/29 09:56:10;;;;;;;8.30;6.20;;;;;;;-0.30;63.90;100397.16;105587;1263;65429;-71
2023/01/29 09:58:42;;;;;;;44.10;28.30;;;;;;;-0.26;63.74;100393.05;105335;1257;59653;-70
2023/01/29 10:01:39;;;;;;;16.40;11.20;;;;;;;-0.22;63.55;100392.92;105287;1263;59651;-68
2023/01/29 10:04:40;;;;;;;11.60;7.90;;;;;;;-0.21;63.24;100389.92;105287;1263;65664;-69
2023/01/29 10:07:17;;;;;;;14.50;6.80;;;;;;;-0.23;62.85;100389.29;105307;1263;59758;-70
2023/01/29 10:10:19;;;;;;;9.40;7.10;;;;;;;-0.26;62.73;100389.42;105488;1257;65579;-70
2023/01/29 10:13:07;;;;;;;8.00;5.80;;;;;;;-0.24;62.62;100387.10;105563;1260;60254;-70
2023/01/29 10:15:51;;;;;;;8.90;6.90;;;;;;;-0.24;62.49;100387.27;105313;1260;59646;-68
2023/01/29 10:18:34;;;;;;;10.60;6.80;;;;;;;-0.20;62.59;100387.83;105297;1263;66051;-69
2023/01/29 10:21:31;;;;;;;10.10;6.80;;;;;;;-0.15;62.55;100376.94;105440;1257;59851;-69
2023/01/29 10:24:15;;;;;;;8.70;6.30;;;;;;;-0.06;62.50;100377.30;105437;1261;64926;-69
2023/01/29 10:26:44;;;;;;;9.90;6.50;;;;;;;0.05;62.48;100372.73;105578;1256;59650;-69
2023/01/29 10:29:15;;;;;;;8.50;6.40;;;;;;;0.19;62.31;100364.77;105582;1261;59685;-70
2023/01/29 10:31:43;;;;;;;9.60;6.90;;;;;;;0.31;62.01;100362.10;105626;1257;64982;-70
2023/01/29 10:34:13;;;;;;;10.50;6.70;;;;;;;0.38;61.71;100357.14;105637;1260;60665;-69
2023/01/29 10:36:44;;;;;;;11.20;6.80;;;;;;;0.43;61.48;100357.45;105407;1263;65735;-69
2023/01/29 10:39:19;;;;;;;8.40;6.40;;;;;;;0.46;61.14;100353.36;105319;1262;59564;-69
2023/01/29 10:42:09;;;;;;;9.90;7.10;;;;;;;0.51;61.06;100351.79;105890;1257;59618;-69
2023/01/29 10:44:52;;;;;;;11.10;7.60;;;;;;;0.62;61.19;100348.95;105268;1260;65759;-69
2023/01/29 10:47:29;;;;;;;9.60;6.90;;;;;;;0.73;61.01;100348.31;105330;1260;59692;-69
2023/01/29 10:50:15;;;;;;;8.90;6.40;;;;;;;0.78;60.69;100346.95;105797;1257;64311;-68
2023/01/29 10:53:35;;;;;;;10.60;7.40;;;;;;;0.75;60.41;100347.21;106306;1254;59576;-69
2023/01/29 10:56:23;;;;;;;22.50;12.20;;;;;;;0.67;60.18;100340.95;105822;1254;59682;-69
2023/01/29 10:58:54;;;;;;;52.30;29.70;;;;;;;0.64;60.23;100333.45;107185;1255;64931;-70
2023/01/29 11:01:22;;;;;;;46.00;24.00;;;;;;;0.66;60.33;100335.27;105573;1254;59525;-77
2023/01/29 11:04:09;;;;;;;50.30;28.10;;;;;;;0.70;60.14;100331.13;105434;1257;65422;-75
2023/01/29 11:06:37;;;;;;;26.00;15.20;;;;;;;0.73;59.86;100330.50;105669;1254;59820;-75
2023/01/29 11:09:31;;;;;;;15.60;10.30;;;;;;;0.73;59.21;100326.86;105493;1254;59675;-76
2023/01/29 11:12:10;;;;;;;9.90;7.00;;;;;;;0.84;59.43;100323.11;105642;1255;65881;-76
2023/01/29 11:14:50;;;;;;;8.80;6.30;;;;;;;1.06;59.04;100321.16;105723;1254;60375;-76
2023/01/29 11:17:23;;;;;;;10.10;7.00;;;;;;;1.20;58.50;100317.63;105908;1254;65449;-79
2023/01/29 11:19:54;;;;;;;10.60;6.00;;;;;;;1.36;58.43;100313.70;105579;1260;62775;-78
2023/01/29 11:22:26;;;;;;;10.30;7.00;;;;;;;1.48;58.09;100312.98;105400;1257;59775;-79
2023/01/29 11:25:20;;;;;;;8.70;5.90;;;;;;;1.59;58.10;100312.14;105312;1257;65684;-77
2023/01/29 11:27:51;;;;;;;8.70;6.10;;;;;;;1.73;57.74;100308.26;105640;1259;60040;-76
2023/01/29 11:30:27;;;;;;;9.00;6.40;;;;;;;1.81;57.57;100307.71;105691;1254;64496;-77
2023/01/29 11:33:18;;;;;;;8.20;5.80;;;;;;;1.92;57.53;100309.49;105448;1263;59656;-75
2023/01/29 11:35:46;;;;;;;10.50;7.90;;;;;;;2.04;56.97;100305.67;105394;1257;59727;-75
2023/01/29 11:38:14;;;;;;;9.90;7.30;;;;;;;2.08;56.64;100306.34;105685;1256;65944;-77
2023/01/29 11:40:43;;;;;;;9.00;6.60;;;;;;;2.09;56.02;100307.66;105567;1258;59971;-79
2023/01/29 11:43:20;;;;;;;9.60;6.60;;;;;;;2.09;55.92;100310.44;105322;1257;64306;-84
2023/01/29 11:45:50;;;;;;;9.20;6.30;;;;;;;2.12;55.73;100309.97;105415;1260;59641;-78
2023/01/29 11:48:20;;;;;;;9.00;5.90;;;;;;;2.11;55.33;100306.71;105839;1255;59610;-80
2023/01/29 11:50:57;;;;;;;10.50;8.10;;;;;;;2.12;55.43;100308.07;105703;1262;65890;-77
2023/01/29 11:53:33;;;;;;;9.10;6.80;;;;;;;2.20;55.47;100305.27;105540;1257;59903;-78
2023/01/29 11:56:25;;;;;;;9.10;6.50;;;;;;;2.32;55.06;100303.64;105548;1259;65071;-80
2023/01/29 11:58:54;;;;;;;8.50;6.30;;;;;;;2.49;55.04;100301.98;105550;1261;59670;-80
2023/01/29 12:01:29;;;;;;;10.10;6.50;;;;;;;2.63;54.54;100301.14;105773;1255;59743;-79
2023/01/29 14:16:11;;;;;;;48.00;27.30;;;;;;;0.52;59.40;100322.25;103936;1279;604291;-74
2023/01/29 14:18:46;;;;;;;30.30;17.40;;;;;;;0.94;58.26;100316.98;104898;1263;117747;-75
2023/01/29 14:21:24;;;;;;;66.10;34.30;;;;;;;0.86;58.42;100323.20;105471;1267;59103;-72
2023/01/29 14:23:54;;;;;;;40.10;22.60;;;;;;;0.80;58.58;100324.30;105392;1266;65108;-73
2023/01/29 14:26:37;;;;;;;44.20;24.80;;;;;;;0.77;58.68;100324.25;105112;1266;59950;-76
2023/01/29 14:29:06;;;;;;;39.20;22.90;;;;;;;0.74;58.83;100325.60;105218;1267;65431;-73
2023/01/29 14:31:42;;;;;;;47.40;27.80;;;;;;;0.69;59.06;100327.86;105111;1268;59209;-75
2023/01/29 14:34:13;;;;;;;40.70;24.80;;;;;;;0.62;59.46;100326.93;105959;1257;59372;-75
2023/01/29 14:36:42;;;;;;;36.80;22.60;;;;;;;0.53;59.76;100328.66;105440;1261;65313;-73
2023/01/29 14:39:36;;;;;;;37.20;22.80;;;;;;;0.49;60.08;100329.88;105553;1262;60006;-76
2023/01/29 14:42:22;;;;;;;68.50;38.50;;;;;;;0.46;60.37;100328.77;105591;1260;65313;-77
2023/01/29 14:44:53;;;;;;;43.30;24.20;;;;;;;0.43;60.62;100331.99;105859;1261;59510;-74
2023/01/29 14:47:47;;;;;;;50.50;31.80;;;;;;;0.41;60.83;100335.04;105846;1257;59615;-76
2023/01/29 14:50:27;;;;;;;;;;;;;;;0.36;61.15;100334.68;105565;1257;65094;-76
2023/01/29 14:53:24;;;;;;;29.20;19.30;;;;;;;0.32;61.44;100332.27;105675;1261;59718;-77
2023/01/29 14:56:15;;;;;;;34.90;21.20;;;;;;;0.27;61.67;100334.70;105596;1259;65714;-80
2023/01/29 14:58:45;;;;;;;36.40;21.30;;;;;;;0.23;61.88;100337.27;105703;1256;59674;-79
2023/01/29 15:01:23;;;;;;;33.90;22.80;;;;;;;0.18;62.16;100337.44;105632;1257;59653;-78
2023/01/29 15:04:18;;;;;;;28.90;19.70;;;;;;;0.15;62.39;100335.30;105443;1263;65537;-75
2023/01/29 15:06:51;;;;;;;33.60;21.50;;;;;;;0.10;62.54;100336.04;105615;1260;59620;-77
2023/01/29 15:09:45;;;;;;;29.80;18.40;;;;;;;0.06;62.77;100341.38;105251;1260;65583;-77
2023/01/29 15:12:32;;;;;;;25.60;17.10;;;;;;;0.05;62.92;100341.23;105304;1265;60816;-76
2023/01/29 15:15:25;;;;;;;27.80;16.80;;;;;;;0.04;63.05;100340.76;105279;1260;59666;-80
2023/01/29 15:18:08;;;;;;;24.80;15.80;;;;;;;0.04;63.24;100343.17;105550;1262;65823;-74
2023/01/29 15:20:38;;;;;;;28.10;17.00;;;;;;;0.04;63.42;100340.95;105433;1263;59703;-76
2023/01/29 15:23:36;;;;;;;26.00;17.10;;;;;;;0.03;63.50;100337.16;105310;1264;65346;-77
2023/01/29 15:26:06;;;;;;;23.70;15.70;;;;;;;0.02;63.58;100336.67;105464;1263;59628;-76
2023/01/29 15:28:35;;;;;;;25.40;16.40;;;;;;;0.01;63.75;100342.27;105493;1258;59733;-75
2023/01/29 15:31:12;;;;;;;26.70;16.10;;;;;;;-0.01;63.89;100343.34;105463;1258;65826;-76
2023/01/29 15:33:41;;;;;;;24.30;14.70;;;;;;;-0.04;64.00;100343.29;105251;1264;60157;-76
2023/01/29 15:36:19;;;;;;;28.90;17.40;;;;;;;-0.06;64.12;100345.27;105524;1262;65672;-76
2023/01/29 15:38:47;;;;;;;28.20;16.80;;;;;;;-0.08;64.21;100344.30;105563;1262;59532;-76
2023/01/29 15:41:20;;;;;;;25.50;16.70;;;;;;;-0.08;64.42;100342.06;105403;1257;59624;-76
2023/01/29 15:43:50;;;;;;;24.40;15.20;;;;;;;-0.13;64.65;100341.02;105434;1260;66016;-76
2023/01/29 15:46:26;;;;;;;26.60;16.70;;;;;;;-0.17;64.79;100343.23;105532;1257;59532;-76
2023/01/29 15:48:56;;;;;;;26.40;16.90;;;;;;;-0.18;64.86;100345.38;105566;1257;65351;-75
2023/01/29 15:51:25;;;;;;;27.20;16.60;;;;;;;-0.19;64.90;100351.46;105486;1263;59539;-75
2023/01/29 15:54:11;;;;;;;27.00;17.20;;;;;;;-0.23;64.98;100351.61;105499;1262;59596;-75
2023/01/29 15:56:47;;;;;;;25.80;16.80;;;;;;;-0.29;65.09;100353.70;105581;1262;65748;-75
2023/01/29 15:59:40;;;;;;;28.60;16.80;;;;;;;-0.33;65.14;100360.41;105583;1260;59835;-75
2023/01/29 16:02:27;;;;;;;29.50;17.40;;;;;;;-0.36;65.31;100366.05;105314;1262;65737;-75
2023/01/29 16:04:58;;;;;;;25.00;15.80;;;;;;;-0.41;65.37;100368.80;105529;1257;59661;-75
2023/01/29 16:07:28;;;;;;;27.10;16.50;;;;;;;-0.44;65.45;100369.29;105606;1257;59762;-75
2023/01/29 16:09:57;;;;;;;25.80;16.70;;;;;;;-0.50;65.56;100372.41;105355;1262;65967;-77
2023/01/29 16:12:25;;;;;;;27.60;16.40;;;;;;;-0.53;65.69;100374.10;105623;1262;59700;-75
2023/01/29 16:14:53;;;;;;;29.80;17.00;;;;;;;-0.56;65.85;100374.72;105555;1257;65337;-76
2023/01/29 16:17:25;;;;;;;26.90;16.80;;;;;;;-0.60;65.97;100374.98;105587;1262;59628;-77
2023/01/29 16:19:55;;;;;;;28.50;17.50;;;;;;;-0.64;66.06;100373.06;105670;1262;59625;-74
2023/01/29 16:22:25;;;;;;;26.50;16.20;;;;;;;-0.67;66.21;100376.30;105299;1257;64765;-75
2023/01/29 16:24:53;;;;;;;25.40;16.50;;;;;;;-0.69;66.41;100374.77;105509;1257;59729;-75
2023/01/29 16:27:21;;;;;;;28.80;16.60;;;;;;;-0.70;66.53;100371.34;105567;1257;64278;-75
2023/01/29 16:29:49;;;;;;;29.30;17.40;;;;;;;-0.70;66.60;100373.96;105175;1257;59527;-75
2023/01/29 16:32:18;;;;;;;30.00;17.40;;;;;;;-0.71;66.77;100374.16;105463;1257;59733;-74
2023/01/29 16:34:51;;;;;;;54.70;24.80;;;;;;;-0.72;66.95;100373.68;105304;1262;65936;-76
2023/01/29 16:37:31;;;;;;;61.80;26.20;;;;;;;-0.74;67.05;100370.63;105243;1262;59690;-76
2023/01/29 16:39:59;;;;;;;67.20;30.90;;;;;;;-0.74;67.17;100376.51;105562;1257;65306;-75